sensor_id;sensor_type;location;lat;lon;timestamp;P1;durP1;ratioP1;P2;durP2;ratioP2
47539;SDS011;33280;52.152;21.052;2023-12-29T00:00:51;11.03;;;6.00;;
47539;SDS011;33280;52.152;21.052;2023-12-29T00:03:38;12.50;;;5.97;;
47539;SDS011;33280;52.152;21.052;2023-12-29T00:06:26;9.80;;;5.90;;
47539;SDS011;33280;52.152;21.052;2023-12-29T00:09:16;12.87;;;5.97;;
47539;SDS011;33280;52.152;21.052;2023-12-29T00:12:07;13.73;;;6.20;;
47539;SDS011;33280;52.152;21.052;2023-12-29T00:14:54;12.90;;;6.17;;
47539;SDS011;33280;52.152;21.052;2023-12-29T00:17:43;13.20;;;6.10;;
47539;SDS011;33280;52.152;21.052;2023-12-29T00:20:30;15.43;;;7.33;;
47539;SDS011;33280;52.152;21.052;2023-12-29T00:23:27;11.60;;;6.53;;
47539;SDS011;33280;52.152;21.052;2023-12-29T00:26:17;14.50;;;6.70;;
47539;SDS011;33280;52.152;21.052;2023-12-29T00:29:04;13.80;;;6.80;;
47539;SDS011;33280;52.152;21.052;2023-12-29T00:31:53;14.77;;;7.30;;
47539;SDS011;33280;52.152;21.052;2023-12-29T00:34:40;13.73;;;6.90;;
47539;SDS011;33280;52.152;21.052;2023-12-29T00:37:28;14.87;;;6.83;;
47539;SDS011;33280;52.152;21.052;2023-12-29T00:40:15;17.20;;;7.43;;
47539;SDS011;33280;52.152;21.052;2023-12-29T00:43:03;14.50;;;7.40;;
47539;SDS011;33280;52.152;21.052;2023-12-29T00:45:50;15.40;;;7.13;;
47539;SDS011;33280;52.152;21.052;2023-12-29T00:48:38;14.43;;;7.90;;
47539;SDS011;33280;52.152;21.052;2023-12-29T00:51:25;14.90;;;7.40;;
47539;SDS011;33280;52.152;21.052;2023-12-29T00:54:13;15.13;;;8.60;;
47539;SDS011;33280;52.152;21.052;2023-12-29T00:57:01;15.10;;;8.03;;
47539;SDS011;33280;52.152;21.052;2023-12-29T00:59:48;15.67;;;8.43;;
47539;SDS011;33280;52.152;21.052;2023-12-29T01:02:36;15.10;;;8.33;;
47539;SDS011;33280;52.152;21.052;2023-12-29T01:05:23;15.20;;;8.57;;
47539;SDS011;33280;52.152;21.052;2023-12-29T01:08:10;15.50;;;8.77;;
47539;SDS011;33280;52.152;21.052;2023-12-29T01:10:58;17.83;;;9.00;;
47539;SDS011;33280;52.152;21.052;2023-12-29T01:13:45;19.03;;;9.47;;
47539;SDS011;33280;52.152;21.052;2023-12-29T01:16:32;20.80;;;8.77;;
47539;SDS011;33280;52.152;21.052;2023-12-29T01:19:20;17.70;;;8.83;;
47539;SDS011;33280;52.152;21.052;2023-12-29T01:22:07;16.43;;;9.17;;
47539;SDS011;33280;52.152;21.052;2023-12-29T01:24:58;18.37;;;9.23;;
47539;SDS011;33280;52.152;21.052;2023-12-29T01:27:46;19.37;;;9.77;;
47539;SDS011;33280;52.152;21.052;2023-12-29T01:30:33;17.57;;;9.47;;
47539;SDS011;33280;52.152;21.052;2023-12-29T01:33:21;20.63;;;9.60;;
47539;SDS011;33280;52.152;21.052;2023-12-29T01:36:09;19.83;;;9.97;;
47539;SDS011;33280;52.152;21.052;2023-12-29T01:39:09;17.70;;;9.27;;
47539;SDS011;33280;52.152;21.052;2023-12-29T01:41:56;19.03;;;9.50;;
47539;SDS011;33280;52.152;21.052;2023-12-29T01:44:44;19.90;;;9.83;;
47539;SDS011;33280;52.152;21.052;2023-12-29T01:47:31;18.93;;;8.93;;
47539;SDS011;33280;52.152;21.052;2023-12-29T01:50:19;18.80;;;9.13;;
47539;SDS011;33280;52.152;21.052;2023-12-29T01:53:08;17.63;;;9.03;;
47539;SDS011;33280;52.152;21.052;2023-12-29T01:55:56;18.67;;;10.20;;
47539;SDS011;33280;52.152;21.052;2023-12-29T01:58:45;18.30;;;9.53;;
47539;SDS011;33280;52.152;21.052;2023-12-29T02:01:35;18.77;;;10.30;;
47539;SDS011;33280;52.152;21.052;2023-12-29T02:04:26;17.00;;;9.03;;
47539;SDS011;33280;52.152;21.052;2023-12-29T02:07:15;18.17;;;9.23;;
47539;SDS011;33280;52.152;21.052;2023-12-29T02:10:03;20.97;;;9.73;;
47539;SDS011;33280;52.152;21.052;2023-12-29T02:12:51;19.97;;;9.70;;
47539;SDS011;33280;52.152;21.052;2023-12-29T02:15:44;23.47;;;10.30;;
47539;SDS011;33280;52.152;21.052;2023-12-29T02:18:34;21.20;;;9.83;;
47539;SDS011;33280;52.152;21.052;2023-12-29T02:21:23;18.80;;;9.90;;
47539;SDS011;33280;52.152;21.052;2023-12-29T02:24:12;20.03;;;10.47;;
47539;SDS011;33280;52.152;21.052;2023-12-29T02:33:30;19.20;;;10.20;;
47539;SDS011;33280;52.152;21.052;2023-12-29T02:36:21;24.57;;;10.80;;
47539;SDS011;33280;52.152;21.052;2023-12-29T02:39:10;20.23;;;10.87;;
47539;SDS011;33280;52.152;21.052;2023-12-29T02:41:58;20.30;;;11.43;;
47539;SDS011;33280;52.152;21.052;2023-12-29T02:44:45;20.07;;;10.77;;
47539;SDS011;33280;52.152;21.052;2023-12-29T02:47:32;21.30;;;10.70;;
47539;SDS011;33280;52.152;21.052;2023-12-29T02:50:20;21.67;;;11.90;;
47539;SDS011;33280;52.152;21.052;2023-12-29T02:53:08;21.40;;;11.10;;
47539;SDS011;33280;52.152;21.052;2023-12-29T02:55:55;21.63;;;11.77;;
47539;SDS011;33280;52.152;21.052;2023-12-29T02:58:43;24.17;;;12.40;;
47539;SDS011;33280;52.152;21.052;2023-12-29T03:01:32;26.40;;;12.20;;
47539;SDS011;33280;52.152;21.052;2023-12-29T03:04:20;27.10;;;12.03;;
47539;SDS011;33280;52.152;21.052;2023-12-29T03:07:09;21.90;;;11.93;;
47539;SDS011;33280;52.152;21.052;2023-12-29T03:09:57;24.70;;;13.10;;
47539;SDS011;33280;52.152;21.052;2023-12-29T03:12:45;20.93;;;11.80;;
47539;SDS011;33280;52.152;21.052;2023-12-29T03:15:32;23.17;;;11.70;;
47539;SDS011;33280;52.152;21.052;2023-12-29T03:18:20;25.33;;;12.00;;
47539;SDS011;33280;52.152;21.052;2023-12-29T03:21:07;26.03;;;12.23;;
47539;SDS011;33280;52.152;21.052;2023-12-29T03:23:55;25.63;;;12.90;;
47539;SDS011;33280;52.152;21.052;2023-12-29T03:26:42;24.67;;;12.27;;
47539;SDS011;33280;52.152;21.052;2023-12-29T03:29:29;22.80;;;12.03;;
47539;SDS011;33280;52.152;21.052;2023-12-29T03:32:17;24.17;;;12.07;;
47539;SDS011;33280;52.152;21.052;2023-12-29T03:35:05;23.43;;;11.93;;
47539;SDS011;33280;52.152;21.052;2023-12-29T03:37:53;23.87;;;12.37;;
47539;SDS011;33280;52.152;21.052;2023-12-29T03:40:40;23.37;;;12.27;;
47539;SDS011;33280;52.152;21.052;2023-12-29T03:43:28;27.37;;;13.13;;
47539;SDS011;33280;52.152;21.052;2023-12-29T03:46:16;23.80;;;12.93;;
47539;SDS011;33280;52.152;21.052;2023-12-29T03:49:07;25.37;;;12.33;;
47539;SDS011;33280;52.152;21.052;2023-12-29T03:51:55;21.93;;;11.77;;
47539;SDS011;33280;52.152;21.052;2023-12-29T03:54:43;23.37;;;12.23;;
47539;SDS011;33280;52.152;21.052;2023-12-29T03:57:30;26.97;;;12.50;;
47539;SDS011;33280;52.152;21.052;2023-12-29T04:00:18;23.63;;;12.17;;
47539;SDS011;33280;52.152;21.052;2023-12-29T04:03:05;23.03;;;12.00;;
47539;SDS011;33280;52.152;21.052;2023-12-29T04:05:52;25.97;;;12.87;;
47539;SDS011;33280;52.152;21.052;2023-12-29T04:08:39;22.27;;;12.33;;
47539;SDS011;33280;52.152;21.052;2023-12-29T04:11:27;25.43;;;12.40;;
47539;SDS011;33280;52.152;21.052;2023-12-29T04:14:14;25.63;;;12.17;;
47539;SDS011;33280;52.152;21.052;2023-12-29T04:17:03;25.93;;;13.00;;
47539;SDS011;33280;52.152;21.052;2023-12-29T04:19:52;22.27;;;12.37;;
47539;SDS011;33280;52.152;21.052;2023-12-29T04:22:40;22.77;;;12.60;;
47539;SDS011;33280;52.152;21.052;2023-12-29T04:25:28;25.43;;;13.00;;
47539;SDS011;33280;52.152;21.052;2023-12-29T04:28:15;25.00;;;12.50;;
47539;SDS011;33280;52.152;21.052;2023-12-29T04:31:03;23.73;;;12.70;;
47539;SDS011;33280;52.152;21.052;2023-12-29T04:33:51;24.47;;;12.90;;
47539;SDS011;33280;52.152;21.052;2023-12-29T04:36:39;23.63;;;12.53;;
47539;SDS011;33280;52.152;21.052;2023-12-29T04:39:26;24.87;;;12.43;;
47539;SDS011;33280;52.152;21.052;2023-12-29T04:42:13;25.87;;;12.73;;
47539;SDS011;33280;52.152;21.052;2023-12-29T04:45:01;24.97;;;12.20;;
47539;SDS011;33280;52.152;21.052;2023-12-29T04:47:49;24.07;;;12.77;;
47539;SDS011;33280;52.152;21.052;2023-12-29T04:50:37;21.90;;;12.33;;
47539;SDS011;33280;52.152;21.052;2023-12-29T04:53:24;27.37;;;12.90;;
47539;SDS011;33280;52.152;21.052;2023-12-29T04:56:12;24.87;;;12.17;;
47539;SDS011;33280;52.152;21.052;2023-12-29T04:58:59;26.63;;;13.07;;
47539;SDS011;33280;52.152;21.052;2023-12-29T05:01:47;23.57;;;12.13;;
47539;SDS011;33280;52.152;21.052;2023-12-29T05:04:35;21.90;;;12.57;;
47539;SDS011;33280;52.152;21.052;2023-12-29T05:07:23;26.67;;;12.60;;
47539;SDS011;33280;52.152;21.052;2023-12-29T05:10:10;25.63;;;12.60;;
47539;SDS011;33280;52.152;21.052;2023-12-29T05:12:58;21.70;;;12.17;;
47539;SDS011;33280;52.152;21.052;2023-12-29T05:15:46;22.57;;;11.53;;
47539;SDS011;33280;52.152;21.052;2023-12-29T05:18:33;21.83;;;11.57;;
47539;SDS011;33280;52.152;21.052;2023-12-29T05:21:20;22.23;;;11.70;;
47539;SDS011;33280;52.152;21.052;2023-12-29T05:24:08;21.13;;;11.20;;
47539;SDS011;33280;52.152;21.052;2023-12-29T05:26:56;20.90;;;11.10;;
47539;SDS011;33280;52.152;21.052;2023-12-29T05:29:43;21.10;;;11.47;;
47539;SDS011;33280;52.152;21.052;2023-12-29T05:32:30;19.33;;;10.77;;
47539;SDS011;33280;52.152;21.052;2023-12-29T05:35:18;18.00;;;10.47;;
47539;SDS011;33280;52.152;21.052;2023-12-29T05:38:05;20.07;;;10.83;;
47539;SDS011;33280;52.152;21.052;2023-12-29T05:40:52;19.67;;;10.70;;
47539;SDS011;33280;52.152;21.052;2023-12-29T05:43:40;19.83;;;10.60;;
47539;SDS011;33280;52.152;21.052;2023-12-29T05:46:28;20.93;;;10.37;;
47539;SDS011;33280;52.152;21.052;2023-12-29T05:49:15;19.67;;;10.93;;
47539;SDS011;33280;52.152;21.052;2023-12-29T05:52:03;22.73;;;10.90;;
47539;SDS011;33280;52.152;21.052;2023-12-29T05:54:52;21.57;;;11.30;;
47539;SDS011;33280;52.152;21.052;2023-12-29T05:57:39;22.20;;;11.33;;
47539;SDS011;33280;52.152;21.052;2023-12-29T06:00:27;20.13;;;11.13;;
47539;SDS011;33280;52.152;21.052;2023-12-29T06:03:14;19.97;;;10.93;;
47539;SDS011;33280;52.152;21.052;2023-12-29T06:06:02;18.60;;;10.33;;
47539;SDS011;33280;52.152;21.052;2023-12-29T06:08:49;20.73;;;10.57;;
47539;SDS011;33280;52.152;21.052;2023-12-29T06:11:36;21.40;;;10.93;;
47539;SDS011;33280;52.152;21.052;2023-12-29T06:14:24;19.60;;;10.50;;
47539;SDS011;33280;52.152;21.052;2023-12-29T06:17:11;21.73;;;10.60;;
47539;SDS011;33280;52.152;21.052;2023-12-29T06:19:59;19.77;;;10.90;;
47539;SDS011;33280;52.152;21.052;2023-12-29T06:22:47;22.93;;;10.67;;
47539;SDS011;33280;52.152;21.052;2023-12-29T06:25:34;20.03;;;10.33;;
47539;SDS011;33280;52.152;21.052;2023-12-29T06:28:22;23.00;;;11.20;;
47539;SDS011;33280;52.152;21.052;2023-12-29T06:31:10;22.17;;;11.20;;
47539;SDS011;33280;52.152;21.052;2023-12-29T06:33:58;17.80;;;9.90;;
47539;SDS011;33280;52.152;21.052;2023-12-29T06:36:47;18.80;;;10.90;;
47539;SDS011;33280;52.152;21.052;2023-12-29T06:39:34;17.43;;;10.13;;
47539;SDS011;33280;52.152;21.052;2023-12-29T06:42:22;20.80;;;10.00;;
47539;SDS011;33280;52.152;21.052;2023-12-29T06:45:09;17.53;;;9.80;;
47539;SDS011;33280;52.152;21.052;2023-12-29T06:47:57;19.17;;;10.00;;
47539;SDS011;33280;52.152;21.052;2023-12-29T06:50:45;19.13;;;10.40;;
47539;SDS011;33280;52.152;21.052;2023-12-29T06:53:33;19.07;;;10.43;;
47539;SDS011;33280;52.152;21.052;2023-12-29T06:56:20;18.90;;;10.17;;
47539;SDS011;33280;52.152;21.052;2023-12-29T06:59:07;20.50;;;11.13;;
47539;SDS011;33280;52.152;21.052;2023-12-29T07:01:55;22.13;;;10.67;;
47539;SDS011;33280;52.152;21.052;2023-12-29T07:04:42;20.63;;;11.03;;
47539;SDS011;33280;52.152;21.052;2023-12-29T07:07:30;24.50;;;11.60;;
47539;SDS011;33280;52.152;21.052;2023-12-29T07:10:17;21.90;;;11.33;;
47539;SDS011;33280;52.152;21.052;2023-12-29T07:13:05;20.20;;;11.40;;
47539;SDS011;33280;52.152;21.052;2023-12-29T07:15:52;22.10;;;10.83;;
47539;SDS011;33280;52.152;21.052;2023-12-29T07:18:40;21.70;;;11.13;;
47539;SDS011;33280;52.152;21.052;2023-12-29T07:21:28;25.87;;;11.97;;
47539;SDS011;33280;52.152;21.052;2023-12-29T07:24:15;23.00;;;11.40;;
47539;SDS011;33280;52.152;21.052;2023-12-29T07:27:03;20.90;;;11.70;;
47539;SDS011;33280;52.152;21.052;2023-12-29T07:29:50;21.63;;;11.00;;
47539;SDS011;33280;52.152;21.052;2023-12-29T07:32:38;25.10;;;11.87;;
47539;SDS011;33280;52.152;21.052;2023-12-29T07:35:26;25.67;;;11.87;;
47539;SDS011;33280;52.152;21.052;2023-12-29T07:38:13;23.83;;;12.13;;
47539;SDS011;33280;52.152;21.052;2023-12-29T07:41:00;20.50;;;11.23;;
47539;SDS011;33280;52.152;21.052;2023-12-29T07:43:48;21.23;;;10.83;;
47539;SDS011;33280;52.152;21.052;2023-12-29T07:46:36;20.17;;;11.67;;
47539;SDS011;33280;52.152;21.052;2023-12-29T07:49:26;21.53;;;11.43;;
47539;SDS011;33280;52.152;21.052;2023-12-29T07:52:13;21.03;;;11.07;;
47539;SDS011;33280;52.152;21.052;2023-12-29T07:55:01;19.67;;;10.77;;
47539;SDS011;33280;52.152;21.052;2023-12-29T07:57:48;20.90;;;10.87;;
47539;SDS011;33280;52.152;21.052;2023-12-29T08:00:36;18.50;;;10.90;;
47539;SDS011;33280;52.152;21.052;2023-12-29T08:03:23;18.23;;;9.77;;
47539;SDS011;33280;52.152;21.052;2023-12-29T08:06:11;21.13;;;10.87;;
47539;SDS011;33280;52.152;21.052;2023-12-29T08:08:59;20.83;;;10.70;;
47539;SDS011;33280;52.152;21.052;2023-12-29T08:11:47;18.67;;;10.43;;
47539;SDS011;33280;52.152;21.052;2023-12-29T08:14:35;20.40;;;10.80;;
47539;SDS011;33280;52.152;21.052;2023-12-29T08:17:22;18.17;;;9.77;;
47539;SDS011;33280;52.152;21.052;2023-12-29T08:20:10;17.13;;;9.73;;
47539;SDS011;33280;52.152;21.052;2023-12-29T08:22:58;17.03;;;9.33;;
47539;SDS011;33280;52.152;21.052;2023-12-29T08:25:45;19.30;;;10.13;;
47539;SDS011;33280;52.152;21.052;2023-12-29T08:28:33;17.50;;;9.30;;
47539;SDS011;33280;52.152;21.052;2023-12-29T08:31:20;16.67;;;8.97;;
47539;SDS011;33280;52.152;21.052;2023-12-29T08:34:10;15.53;;;8.40;;
47539;SDS011;33280;52.152;21.052;2023-12-29T08:36:57;17.60;;;8.97;;
47539;SDS011;33280;52.152;21.052;2023-12-29T08:39:48;17.97;;;9.33;;
47539;SDS011;33280;52.152;21.052;2023-12-29T08:42:35;17.57;;;9.50;;
47539;SDS011;33280;52.152;21.052;2023-12-29T08:45:23;15.87;;;9.30;;
47539;SDS011;33280;52.152;21.052;2023-12-29T08:48:10;18.83;;;8.80;;
47539;SDS011;33280;52.152;21.052;2023-12-29T08:50:58;15.77;;;8.93;;
47539;SDS011;33280;52.152;21.052;2023-12-29T08:53:45;18.33;;;8.80;;
47539;SDS011;33280;52.152;21.052;2023-12-29T08:56:33;15.23;;;8.50;;
47539;SDS011;33280;52.152;21.052;2023-12-29T08:59:20;16.57;;;9.27;;
47539;SDS011;33280;52.152;21.052;2023-12-29T09:02:08;15.13;;;8.60;;
47539;SDS011;33280;52.152;21.052;2023-12-29T09:04:56;14.37;;;8.37;;
47539;SDS011;33280;52.152;21.052;2023-12-29T09:07:43;14.67;;;7.97;;
47539;SDS011;33280;52.152;21.052;2023-12-29T09:10:30;15.70;;;7.93;;
47539;SDS011;33280;52.152;21.052;2023-12-29T09:13:18;15.63;;;8.20;;
47539;SDS011;33280;52.152;21.052;2023-12-29T09:16:09;13.33;;;7.87;;
47539;SDS011;33280;52.152;21.052;2023-12-29T09:18:57;14.63;;;7.80;;
47539;SDS011;33280;52.152;21.052;2023-12-29T09:21:44;17.60;;;7.93;;
47539;SDS011;33280;52.152;21.052;2023-12-29T09:24:31;15.87;;;8.17;;
47539;SDS011;33280;52.152;21.052;2023-12-29T09:27:19;14.20;;;7.90;;
47539;SDS011;33280;52.152;21.052;2023-12-29T09:30:07;13.00;;;7.60;;
47539;SDS011;33280;52.152;21.052;2023-12-29T09:32:55;14.17;;;7.70;;
47539;SDS011;33280;52.152;21.052;2023-12-29T09:35:42;11.60;;;7.60;;
47539;SDS011;33280;52.152;21.052;2023-12-29T09:38:29;15.13;;;7.97;;
47539;SDS011;33280;52.152;21.052;2023-12-29T09:41:17;14.60;;;7.30;;
47539;SDS011;33280;52.152;21.052;2023-12-29T09:44:06;18.80;;;7.90;;
47539;SDS011;33280;52.152;21.052;2023-12-29T09:47:02;13.60;;;7.70;;
47539;SDS011;33280;52.152;21.052;2023-12-29T09:49:51;13.57;;;7.27;;
47539;SDS011;33280;52.152;21.052;2023-12-29T09:52:40;13.50;;;7.10;;
47539;SDS011;33280;52.152;21.052;2023-12-29T09:55:28;15.20;;;7.50;;
47539;SDS011;33280;52.152;21.052;2023-12-29T09:58:15;12.10;;;7.00;;
47539;SDS011;33280;52.152;21.052;2023-12-29T10:01:05;12.40;;;7.17;;
47539;SDS011;33280;52.152;21.052;2023-12-29T10:03:53;12.03;;;6.77;;
47539;SDS011;33280;52.152;21.052;2023-12-29T10:06:41;10.23;;;6.57;;
47539;SDS011;33280;52.152;21.052;2023-12-29T10:09:36;13.07;;;6.70;;
47539;SDS011;33280;52.152;21.052;2023-12-29T10:12:26;13.67;;;6.37;;
47539;SDS011;33280;52.152;21.052;2023-12-29T10:18:27;12.10;;;6.00;;
47539;SDS011;33280;52.152;21.052;2023-12-29T10:21:28;10.03;;;5.77;;
47539;SDS011;33280;52.152;21.052;2023-12-29T10:24:19;8.20;;;4.60;;
47539;SDS011;33280;52.152;21.052;2023-12-29T10:27:09;7.67;;;4.33;;
47539;SDS011;33280;52.152;21.052;2023-12-29T10:29:56;8.73;;;4.40;;
47539;SDS011;33280;52.152;21.052;2023-12-29T10:32:49;9.00;;;3.83;;
47539;SDS011;33280;52.152;21.052;2023-12-29T10:35:37;5.57;;;3.53;;
47539;SDS011;33280;52.152;21.052;2023-12-29T10:38:25;5.57;;;3.37;;
47539;SDS011;33280;52.152;21.052;2023-12-29T10:41:13;5.43;;;3.53;;
47539;SDS011;33280;52.152;21.052;2023-12-29T10:44:06;7.10;;;3.60;;
47539;SDS011;33280;52.152;21.052;2023-12-29T10:46:54;5.30;;;3.50;;
47539;SDS011;33280;52.152;21.052;2023-12-29T10:49:41;8.23;;;3.73;;
47539;SDS011;33280;52.152;21.052;2023-12-29T10:52:31;6.00;;;3.50;;
47539;SDS011;33280;52.152;21.052;2023-12-29T10:55:19;7.00;;;3.50;;
47539;SDS011;33280;52.152;21.052;2023-12-29T10:58:11;6.73;;;3.77;;
47539;SDS011;33280;52.152;21.052;2023-12-29T11:00:58;6.37;;;3.67;;
47539;SDS011;33280;52.152;21.052;2023-12-29T11:03:57;6.60;;;3.60;;
47539;SDS011;33280;52.152;21.052;2023-12-29T11:06:56;5.60;;;3.67;;
47539;SDS011;33280;52.152;21.052;2023-12-29T11:09:43;8.27;;;4.13;;
47539;SDS011;33280;52.152;21.052;2023-12-29T11:12:32;6.80;;;4.00;;
47539;SDS011;33280;52.152;21.052;2023-12-29T11:15:20;7.20;;;3.43;;
47539;SDS011;33280;52.152;21.052;2023-12-29T11:18:19;6.63;;;3.53;;
47539;SDS011;33280;52.152;21.052;2023-12-29T11:21:07;6.07;;;3.40;;
47539;SDS011;33280;52.152;21.052;2023-12-29T11:23:56;7.57;;;3.50;;
47539;SDS011;33280;52.152;21.052;2023-12-29T11:26:44;5.97;;;3.30;;
47539;SDS011;33280;52.152;21.052;2023-12-29T11:29:32;7.60;;;3.50;;
47539;SDS011;33280;52.152;21.052;2023-12-29T11:32:22;6.40;;;3.80;;
47539;SDS011;33280;52.152;21.052;2023-12-29T11:41:41;7.47;;;3.33;;
47539;SDS011;33280;52.152;21.052;2023-12-29T11:44:36;7.43;;;3.70;;
47539;SDS011;33280;52.152;21.052;2023-12-29T11:47:36;5.53;;;3.20;;
47539;SDS011;33280;52.152;21.052;2023-12-29T11:50:34;6.57;;;3.47;;
47539;SDS011;33280;52.152;21.052;2023-12-29T11:53:31;5.77;;;3.37;;
47539;SDS011;33280;52.152;21.052;2023-12-29T11:56:19;5.43;;;3.10;;
47539;SDS011;33280;52.152;21.052;2023-12-29T11:59:13;6.93;;;3.60;;
47539;SDS011;33280;52.152;21.052;2023-12-29T12:02:00;5.57;;;3.10;;
47539;SDS011;33280;52.152;21.052;2023-12-29T12:04:48;8.40;;;3.50;;
47539;SDS011;33280;52.152;21.052;2023-12-29T12:13:41;8.20;;;3.40;;
47539;SDS011;33280;52.152;21.052;2023-12-29T12:19:32;6.03;;;3.57;;
47539;SDS011;33280;52.152;21.052;2023-12-29T12:22:22;8.20;;;3.63;;
47539;SDS011;33280;52.152;21.052;2023-12-29T12:25:12;6.33;;;3.63;;
47539;SDS011;33280;52.152;21.052;2023-12-29T12:27:59;7.63;;;3.67;;
47539;SDS011;33280;52.152;21.052;2023-12-29T12:30:52;5.70;;;3.73;;
47539;SDS011;33280;52.152;21.052;2023-12-29T12:33:40;6.57;;;3.63;;
47539;SDS011;33280;52.152;21.052;2023-12-29T12:36:28;8.20;;;3.80;;
47539;SDS011;33280;52.152;21.052;2023-12-29T12:39:15;7.00;;;3.63;;
47539;SDS011;33280;52.152;21.052;2023-12-29T12:42:03;5.10;;;3.50;;
47539;SDS011;33280;52.152;21.052;2023-12-29T12:45:04;7.20;;;3.87;;
47539;SDS011;33280;52.152;21.052;2023-12-29T12:48:09;5.87;;;3.70;;
47539;SDS011;33280;52.152;21.052;2023-12-29T12:51:01;6.83;;;3.70;;
47539;SDS011;33280;52.152;21.052;2023-12-29T12:53:50;6.77;;;3.83;;
47539;SDS011;33280;52.152;21.052;2023-12-29T12:56:38;7.20;;;3.80;;
47539;SDS011;33280;52.152;21.052;2023-12-29T12:59:27;6.37;;;3.97;;
47539;SDS011;33280;52.152;21.052;2023-12-29T13:02:15;5.90;;;3.60;;
47539;SDS011;33280;52.152;21.052;2023-12-29T13:05:04;8.13;;;3.67;;
47539;SDS011;33280;52.152;21.052;2023-12-29T13:07:54;6.03;;;3.53;;
47539;SDS011;33280;52.152;21.052;2023-12-29T13:10:45;7.40;;;3.70;;
47539;SDS011;33280;52.152;21.052;2023-12-29T13:13:36;8.30;;;4.10;;
47539;SDS011;33280;52.152;21.052;2023-12-29T13:16:32;7.33;;;3.70;;
47539;SDS011;33280;52.152;21.052;2023-12-29T13:19:23;6.00;;;3.60;;
47539;SDS011;33280;52.152;21.052;2023-12-29T13:22:12;10.67;;;3.73;;
47539;SDS011;33280;52.152;21.052;2023-12-29T13:25:04;7.67;;;3.80;;
47539;SDS011;33280;52.152;21.052;2023-12-29T13:27:54;7.13;;;3.70;;
47539;SDS011;33280;52.152;21.052;2023-12-29T13:30:42;7.20;;;3.70;;
47539;SDS011;33280;52.152;21.052;2023-12-29T13:36:34;6.80;;;3.53;;
47539;SDS011;33280;52.152;21.052;2023-12-29T13:42:22;5.87;;;3.63;;
47539;SDS011;33280;52.152;21.052;2023-12-29T13:45:12;6.10;;;3.80;;
47539;SDS011;33280;52.152;21.052;2023-12-29T13:48:02;11.47;;;3.77;;
47539;SDS011;33280;52.152;21.052;2023-12-29T13:50:50;8.20;;;4.03;;
47539;SDS011;33280;52.152;21.052;2023-12-29T13:53:38;7.07;;;3.43;;
47539;SDS011;33280;52.152;21.052;2023-12-29T13:56:26;6.47;;;3.50;;
47539;SDS011;33280;52.152;21.052;2023-12-29T13:59:13;5.13;;;3.53;;
47539;SDS011;33280;52.152;21.052;2023-12-29T14:02:03;7.40;;;3.70;;
47539;SDS011;33280;52.152;21.052;2023-12-29T14:08:17;7.63;;;3.80;;
47539;SDS011;33280;52.152;21.052;2023-12-29T14:11:10;6.50;;;3.57;;
47539;SDS011;33280;52.152;21.052;2023-12-29T14:13:57;7.23;;;3.30;;
47539;SDS011;33280;52.152;21.052;2023-12-29T14:16:45;6.03;;;3.80;;
47539;SDS011;33280;52.152;21.052;2023-12-29T14:19:36;6.57;;;3.70;;
47539;SDS011;33280;52.152;21.052;2023-12-29T14:22:24;10.97;;;3.70;;
47539;SDS011;33280;52.152;21.052;2023-12-29T14:25:13;7.80;;;4.00;;
47539;SDS011;33280;52.152;21.052;2023-12-29T14:28:01;7.37;;;3.57;;
47539;SDS011;33280;52.152;21.052;2023-12-29T14:30:50;7.60;;;3.70;;
47539;SDS011;33280;52.152;21.052;2023-12-29T14:33:49;9.20;;;3.70;;
47539;SDS011;33280;52.152;21.052;2023-12-29T14:36:37;9.97;;;4.07;;
47539;SDS011;33280;52.152;21.052;2023-12-29T14:39:29;7.40;;;3.90;;
47539;SDS011;33280;52.152;21.052;2023-12-29T14:42:17;7.50;;;4.20;;
47539;SDS011;33280;52.152;21.052;2023-12-29T14:45:05;9.57;;;4.83;;
47539;SDS011;33280;52.152;21.052;2023-12-29T14:47:52;9.13;;;4.23;;
47539;SDS011;33280;52.152;21.052;2023-12-29T14:50:40;7.40;;;4.10;;
47539;SDS011;33280;52.152;21.052;2023-12-29T14:53:32;9.40;;;4.30;;
47539;SDS011;33280;52.152;21.052;2023-12-29T14:56:20;6.53;;;4.00;;
47539;SDS011;33280;52.152;21.052;2023-12-29T14:59:07;6.63;;;4.03;;
47539;SDS011;33280;52.152;21.052;2023-12-29T15:01:57;9.40;;;4.33;;
47539;SDS011;33280;52.152;21.052;2023-12-29T15:04:45;9.17;;;3.80;;
47539;SDS011;33280;52.152;21.052;2023-12-29T15:07:32;6.80;;;3.73;;
47539;SDS011;33280;52.152;21.052;2023-12-29T15:10:20;7.93;;;4.00;;
47539;SDS011;33280;52.152;21.052;2023-12-29T15:13:07;7.87;;;4.40;;
47539;SDS011;33280;52.152;21.052;2023-12-29T15:15:55;7.47;;;4.00;;
47539;SDS011;33280;52.152;21.052;2023-12-29T15:18:44;8.80;;;4.07;;
47539;SDS011;33280;52.152;21.052;2023-12-29T15:21:31;8.27;;;3.90;;
47539;SDS011;33280;52.152;21.052;2023-12-29T15:24:21;7.80;;;3.80;;
47539;SDS011;33280;52.152;21.052;2023-12-29T15:27:09;6.77;;;3.67;;
47539;SDS011;33280;52.152;21.052;2023-12-29T15:29:56;8.23;;;4.30;;
47539;SDS011;33280;52.152;21.052;2023-12-29T15:32:43;8.73;;;4.10;;
47539;SDS011;33280;52.152;21.052;2023-12-29T15:35:32;11.77;;;4.77;;
47539;SDS011;33280;52.152;21.052;2023-12-29T15:38:20;9.53;;;4.47;;
47539;SDS011;33280;52.152;21.052;2023-12-29T15:41:07;8.30;;;4.00;;
47539;SDS011;33280;52.152;21.052;2023-12-29T15:43:54;9.17;;;4.50;;
47539;SDS011;33280;52.152;21.052;2023-12-29T15:46:41;11.37;;;4.10;;
47539;SDS011;33280;52.152;21.052;2023-12-29T15:49:29;8.60;;;3.90;;
47539;SDS011;33280;52.152;21.052;2023-12-29T15:52:17;9.80;;;4.20;;
47539;SDS011;33280;52.152;21.052;2023-12-29T15:55:05;9.70;;;4.53;;
47539;SDS011;33280;52.152;21.052;2023-12-29T15:57:54;9.37;;;4.47;;
47539;SDS011;33280;52.152;21.052;2023-12-29T16:00:43;7.97;;;4.37;;
47539;SDS011;33280;52.152;21.052;2023-12-29T16:03:33;7.77;;;4.30;;
47539;SDS011;33280;52.152;21.052;2023-12-29T16:06:21;9.07;;;4.60;;
47539;SDS011;33280;52.152;21.052;2023-12-29T16:09:10;6.83;;;3.97;;
47539;SDS011;33280;52.152;21.052;2023-12-29T16:11:57;8.40;;;4.63;;
47539;SDS011;33280;52.152;21.052;2023-12-29T16:14:44;7.40;;;4.10;;
47539;SDS011;33280;52.152;21.052;2023-12-29T16:17:32;8.57;;;4.80;;
47539;SDS011;33280;52.152;21.052;2023-12-29T16:20:19;7.33;;;4.20;;
47539;SDS011;33280;52.152;21.052;2023-12-29T16:23:06;9.97;;;4.80;;
47539;SDS011;33280;52.152;21.052;2023-12-29T16:25:54;11.13;;;5.10;;
47539;SDS011;33280;52.152;21.052;2023-12-29T16:28:41;8.33;;;4.43;;
47539;SDS011;33280;52.152;21.052;2023-12-29T16:31:29;8.70;;;4.63;;
47539;SDS011;33280;52.152;21.052;2023-12-29T16:34:17;8.37;;;4.57;;
47539;SDS011;33280;52.152;21.052;2023-12-29T16:37:04;9.37;;;4.60;;
47539;SDS011;33280;52.152;21.052;2023-12-29T16:39:52;9.13;;;4.67;;
47539;SDS011;33280;52.152;21.052;2023-12-29T16:42:42;8.77;;;4.30;;
47539;SDS011;33280;52.152;21.052;2023-12-29T16:45:30;9.20;;;4.50;;
47539;SDS011;33280;52.152;21.052;2023-12-29T16:48:17;12.07;;;4.90;;
47539;SDS011;33280;52.152;21.052;2023-12-29T16:51:05;8.77;;;4.67;;
47539;SDS011;33280;52.152;21.052;2023-12-29T16:53:59;9.20;;;4.50;;
47539;SDS011;33280;52.152;21.052;2023-12-29T16:56:48;10.17;;;4.57;;
47539;SDS011;33280;52.152;21.052;2023-12-29T16:59:36;7.37;;;4.40;;